BAW181 EGAA-LSZH
Flight info
| Callsign | BAW181 |
|---|---|
| Flight time | 2h 8m |
| Altitude | 37000 |
| Route | BELZU L10 DUFFY L15 SOSIM/N0478F370 L15 HON L10 DVR UL9 KONAN UL607 KOK M150 GEBDA/N0480F380 Y173 EDISA/N0478F390 Y852 NATOR N850 TRA |
| Aircraft | B77W/H-SDE1E2E3FGHIJ2J3J4J5M1RWXY/LB1D1 |
Departure
| Time | 2026-04-30 05:39 |
|---|---|
| Airport | Belfast International Airport (EGAA) |
Arrival
| Time | 2026-04-30 07:48 |
|---|---|
| Airport | Zürich Airport (LSZH) |
| Time | Latitude | Longitude | Altitude | Speed | Heading |
|---|---|---|---|---|---|
| 2026-04-30 05:13 | 54.66051 | -6.21757 | 242 ft | 0 kts | 286° |
| 2026-04-30 05:30 | 54.66051 | -6.21755 | 242 ft | 1 kts | 286° |
| 2026-04-30 05:30 | 54.66046 | -6.21733 | 243 ft | 2 kts | 300° |
| 2026-04-30 05:31 | 54.66038 | -6.21711 | 243 ft | 2 kts | 308° |
| 2026-04-30 05:31 | 54.66028 | -6.21692 | 244 ft | 2 kts | 316° |
| 2026-04-30 05:31 | 54.66017 | -6.21675 | 245 ft | 2 kts | 325° |
| 2026-04-30 05:31 | 54.66004 | -6.21662 | 245 ft | 2 kts | 334° |
| 2026-04-30 05:32 | 54.65990 | -6.21652 | 245 ft | 2 kts | 341° |
| 2026-04-30 05:32 | 54.65980 | -6.21647 | 246 ft | 1 kts | 341° |
| 2026-04-30 05:32 | 54.65968 | -6.21637 | 246 ft | 2 kts | 318° |
| 2026-04-30 05:32 | 54.65959 | -6.21617 | 246 ft | 2 kts | 291° |
| 2026-04-30 05:33 | 54.65956 | -6.21592 | 246 ft | 2 kts | 268° |
| 2026-04-30 05:33 | 54.65958 | -6.21571 | 247 ft | 0 kts | 248° |
| 2026-04-30 05:33 | 54.65960 | -6.21564 | 247 ft | 0 kts | 246° |
| 2026-04-30 05:35 | 54.65959 | -6.21567 | 247 ft | 2 kts | 246° |
| 2026-04-30 05:35 | 54.65924 | -6.21652 | 246 ft | 15 kts | 231° |
| 2026-04-30 05:36 | 54.65849 | -6.21870 | 242 ft | 27 kts | 242° |
| 2026-04-30 05:36 | 54.65793 | -6.22102 | 239 ft | 19 kts | 248° |
| 2026-04-30 05:36 | 54.65759 | -6.22360 | 235 ft | 25 kts | 263° |
| 2026-04-30 05:36 | 54.65743 | -6.22703 | 227 ft | 32 kts | 265° |
| 2026-04-30 05:37 | 54.65641 | -6.23065 | 224 ft | 36 kts | 233° |
| 2026-04-30 05:37 | 54.65490 | -6.23347 | 220 ft | 30 kts | 204° |
| 2026-04-30 05:37 | 54.65380 | -6.23435 | 221 ft | 14 kts | 224° |
| 2026-04-30 05:37 | 54.65303 | -6.23546 | 220 ft | 14 kts | 176° |
| 2026-04-30 05:38 | 54.65251 | -6.23452 | 221 ft | 12 kts | 89° |
| 2026-04-30 05:38 | 54.65268 | -6.23366 | 222 ft | 0 kts | 65° |
| 2026-04-30 05:38 | 54.65305 | -6.23231 | 225 ft | 40 kts | 66° |
| 2026-04-30 05:38 | 54.65576 | -6.22226 | 240 ft | 143 kts | 65° |
| 2026-04-30 05:39 | 54.66089 | -6.20273 | 722 ft | 201 kts | 66° |
| 2026-04-30 05:39 | 54.66746 | -6.18049 | 2118 ft | 226 kts | 67° |
| 2026-04-30 05:39 | 54.67233 | -6.15734 | 4131 ft | 214 kts | 90° |
| 2026-04-30 05:39 | 54.67091 | -6.13346 | 5802 ft | 214 kts | 114° |
| 2026-04-30 05:40 | 54.66305 | -6.11279 | 7405 ft | 219 kts | 134° |
| 2026-04-30 05:40 | 54.65282 | -6.09499 | 9045 ft | 220 kts | 135° |
| 2026-04-30 05:40 | 54.64220 | -6.07687 | 10358 ft | 219 kts | 135° |
| 2026-04-30 05:40 | 54.63114 | -6.05803 | 10989 ft | 234 kts | 135° |
| 2026-04-30 05:41 | 54.61923 | -6.03776 | 11579 ft | 251 kts | 135° |
| 2026-04-30 05:41 | 54.60642 | -6.01597 | 12203 ft | 268 kts | 136° |
| 2026-04-30 05:41 | 54.59279 | -5.99282 | 12848 ft | 284 kts | 136° |
| 2026-04-30 05:41 | 54.57850 | -5.96856 | 13507 ft | 300 kts | 136° |
| 2026-04-30 05:42 | 54.56343 | -5.94302 | 14199 ft | 314 kts | 136° |
| 2026-04-30 05:42 | 54.54744 | -5.91593 | 14826 ft | 331 kts | 136° |
| 2026-04-30 05:42 | 54.53060 | -5.88744 | 15482 ft | 346 kts | 136° |
| 2026-04-30 05:42 | 54.51271 | -5.85893 | 16093 ft | 362 kts | 142° |
| 2026-04-30 05:43 | 54.49212 | -5.83314 | 16696 ft | 377 kts | 145° |
| 2026-04-30 05:43 | 54.47033 | -5.80699 | 17467 ft | 388 kts | 145° |
| 2026-04-30 05:43 | 54.44826 | -5.78054 | 18336 ft | 395 kts | 146° |
| 2026-04-30 05:43 | 54.42564 | -5.75345 | 19301 ft | 400 kts | 146° |
| 2026-04-30 05:44 | 54.40284 | -5.72617 | 20291 ft | 403 kts | 146° |
| 2026-04-30 05:44 | 54.38003 | -5.69890 | 21202 ft | 407 kts | 146° |
| 2026-04-30 05:44 | 54.35692 | -5.67131 | 22087 ft | 412 kts | 146° |
| 2026-04-30 05:44 | 54.33314 | -5.64294 | 22912 ft | 418 kts | 146° |
| 2026-04-30 05:45 | 54.30950 | -5.61479 | 23688 ft | 423 kts | 146° |
| 2026-04-30 05:45 | 54.28579 | -5.58518 | 24473 ft | 428 kts | 141° |
| 2026-04-30 05:45 | 54.26400 | -5.54955 | 25235 ft | 435 kts | 133° |
| 2026-04-30 05:45 | 54.24526 | -5.50901 | 25942 ft | 442 kts | 127° |
| 2026-04-30 05:46 | 54.22734 | -5.46639 | 26610 ft | 449 kts | 127° |
| 2026-04-30 05:46 | 54.20894 | -5.42251 | 27346 ft | 455 kts | 126° |
| 2026-04-30 05:46 | 54.19048 | -5.37865 | 28077 ft | 459 kts | 127° |
| 2026-04-30 05:46 | 54.17166 | -5.33410 | 28725 ft | 466 kts | 127° |
| 2026-04-30 05:47 | 54.15267 | -5.28926 | 29370 ft | 472 kts | 127° |
| 2026-04-30 05:47 | 54.13322 | -5.24346 | 30145 ft | 474 kts | 127° |
| 2026-04-30 05:47 | 54.11375 | -5.19773 | 31106 ft | 473 kts | 127° |
| 2026-04-30 05:47 | 54.09469 | -5.15304 | 32220 ft | 466 kts | 127° |
| 2026-04-30 05:48 | 54.07580 | -5.10885 | 33291 ft | 460 kts | 127° |
| 2026-04-30 05:48 | 54.05729 | -5.06563 | 34146 ft | 456 kts | 127° |
| 2026-04-30 05:48 | 54.03830 | -5.02138 | 34887 ft | 454 kts | 127° |
| 2026-04-30 05:48 | 54.01958 | -4.97784 | 35446 ft | 453 kts | 127° |
| 2026-04-30 05:49 | 54.00086 | -4.93439 | 35967 ft | 452 kts | 127° |
| 2026-04-30 05:49 | 53.98225 | -4.89128 | 36448 ft | 450 kts | 127° |
| 2026-04-30 05:49 | 53.96366 | -4.84827 | 36869 ft | 450 kts | 128° |
| 2026-04-30 05:49 | 53.94511 | -4.80547 | 37236 ft | 452 kts | 127° |
| 2026-04-30 05:50 | 53.90788 | -4.71982 | 37233 ft | 449 kts | 127° |
| 2026-04-30 05:50 | 53.87065 | -4.63444 | 37234 ft | 450 kts | 127° |
| 2026-04-30 05:51 | 53.83358 | -4.54971 | 37233 ft | 449 kts | 127° |
| 2026-04-30 05:51 | 53.79655 | -4.46535 | 37237 ft | 449 kts | 127° |
| 2026-04-30 05:52 | 53.75929 | -4.38072 | 37231 ft | 450 kts | 127° |
| 2026-04-30 05:52 | 53.72118 | -4.29448 | 37245 ft | 464 kts | 128° |
| 2026-04-30 05:53 | 53.68218 | -4.20650 | 37245 ft | 473 kts | 128° |
| 2026-04-30 05:53 | 53.64236 | -4.11701 | 37245 ft | 476 kts | 128° |
| 2026-04-30 05:54 | 53.60276 | -4.02829 | 37241 ft | 476 kts | 128° |
| 2026-04-30 05:54 | 53.56309 | -3.93976 | 37246 ft | 476 kts | 128° |
| 2026-04-30 05:55 | 53.52297 | -3.85054 | 37251 ft | 476 kts | 128° |
| 2026-04-30 05:55 | 53.48329 | -3.76260 | 37247 ft | 475 kts | 128° |
| 2026-04-30 05:56 | 53.44339 | -3.67448 | 37247 ft | 475 kts | 128° |
| 2026-04-30 05:56 | 53.40328 | -3.58679 | 37240 ft | 474 kts | 130° |
| 2026-04-30 05:57 | 53.35957 | -3.50369 | 37245 ft | 473 kts | 132° |
| 2026-04-30 05:57 | 53.31599 | -3.42164 | 37251 ft | 472 kts | 132° |
| 2026-04-30 05:58 | 53.27287 | -3.34029 | 37252 ft | 470 kts | 132° |
| 2026-04-30 05:58 | 53.23047 | -3.26035 | 37249 ft | 471 kts | 132° |
| 2026-04-30 05:59 | 53.18713 | -3.17879 | 37254 ft | 470 kts | 132° |
| 2026-04-30 05:59 | 53.14382 | -3.09749 | 37253 ft | 470 kts | 132° |
| 2026-04-30 06:00 | 53.10039 | -3.01620 | 37261 ft | 470 kts | 132° |
| 2026-04-30 06:00 | 53.05718 | -2.93558 | 37258 ft | 469 kts | 132° |
| 2026-04-30 06:01 | 53.01380 | -2.85489 | 37265 ft | 469 kts | 132° |
| 2026-04-30 06:01 | 52.97071 | -2.77500 | 37259 ft | 468 kts | 132° |
| 2026-04-30 06:02 | 52.92735 | -2.69486 | 37254 ft | 469 kts | 132° |
| 2026-04-30 06:02 | 52.88348 | -2.61404 | 37269 ft | 470 kts | 132° |
| 2026-04-30 06:03 | 52.84047 | -2.53507 | 37276 ft | 470 kts | 132° |
| 2026-04-30 06:03 | 52.79872 | -2.45866 | 37281 ft | 470 kts | 132° |
| 2026-04-30 06:04 | 52.75490 | -2.37870 | 37264 ft | 471 kts | 132° |
| 2026-04-30 06:05 | 52.69001 | -2.26077 | 37261 ft | 470 kts | 133° |
| 2026-04-30 06:05 | 52.64687 | -2.18267 | 37262 ft | 470 kts | 133° |
| 2026-04-30 06:06 | 52.60470 | -2.10659 | 37266 ft | 471 kts | 133° |
| 2026-04-30 06:06 | 52.56040 | -2.02690 | 37264 ft | 471 kts | 133° |
| 2026-04-30 06:07 | 52.51635 | -1.94792 | 37260 ft | 472 kts | 133° |
| 2026-04-30 06:07 | 52.47174 | -1.86819 | 37258 ft | 472 kts | 132° |
| 2026-04-30 06:08 | 52.42729 | -1.78900 | 37250 ft | 472 kts | 132° |
| 2026-04-30 06:08 | 52.38255 | -1.70956 | 37251 ft | 472 kts | 132° |
| 2026-04-30 06:09 | 52.34379 | -1.62389 | 37255 ft | 473 kts | 119° |
| 2026-04-30 06:09 | 52.31331 | -1.52851 | 37248 ft | 474 kts | 118° |
| 2026-04-30 06:10 | 52.28288 | -1.43287 | 37258 ft | 472 kts | 117° |
| 2026-04-30 06:10 | 52.25251 | -1.33801 | 37249 ft | 473 kts | 118° |
| 2026-04-30 06:11 | 52.22270 | -1.24540 | 37256 ft | 473 kts | 118° |
| 2026-04-30 06:11 | 52.19304 | -1.15365 | 37256 ft | 472 kts | 118° |
| 2026-04-30 06:12 | 52.15885 | -1.06286 | 37266 ft | 473 kts | 124° |
| 2026-04-30 06:12 | 52.12182 | -0.97486 | 37267 ft | 473 kts | 124° |
| 2026-04-30 06:13 | 52.08463 | -0.88682 | 37270 ft | 472 kts | 124° |
| 2026-04-30 06:13 | 52.04720 | -0.79845 | 37268 ft | 473 kts | 124° |
| 2026-04-30 06:14 | 52.00986 | -0.71063 | 37272 ft | 472 kts | 124° |
| 2026-04-30 06:14 | 51.97259 | -0.62321 | 37272 ft | 473 kts | 124° |
| 2026-04-30 06:15 | 51.93490 | -0.53513 | 37264 ft | 473 kts | 124° |
| 2026-04-30 06:15 | 51.89732 | -0.44761 | 37258 ft | 472 kts | 124° |
| 2026-04-30 06:16 | 51.85978 | -0.36047 | 37261 ft | 473 kts | 124° |
| 2026-04-30 06:16 | 51.82321 | -0.27588 | 37263 ft | 473 kts | 125° |
| 2026-04-30 06:17 | 51.78535 | -0.18858 | 37257 ft | 473 kts | 125° |
| 2026-04-30 06:17 | 51.74742 | -0.10144 | 37258 ft | 475 kts | 125° |
| 2026-04-30 06:18 | 51.71142 | -0.01231 | 37252 ft | 474 kts | 122° |
| 2026-04-30 06:18 | 51.67601 | 0.07654 | 37250 ft | 474 kts | 122° |
| 2026-04-30 06:19 | 51.64035 | 0.16546 | 37263 ft | 474 kts | 122° |
| 2026-04-30 06:19 | 51.60520 | 0.25528 | 37257 ft | 474 kts | 122° |
| 2026-04-30 06:20 | 51.57016 | 0.34465 | 37258 ft | 474 kts | 122° |
| 2026-04-30 06:20 | 51.53490 | 0.43413 | 37265 ft | 474 kts | 122° |
| 2026-04-30 06:21 | 51.49960 | 0.52335 | 37257 ft | 474 kts | 122° |
| 2026-04-30 06:21 | 51.46429 | 0.61223 | 37262 ft | 475 kts | 122° |
| 2026-04-30 06:22 | 51.42874 | 0.70140 | 37264 ft | 476 kts | 122° |
| 2026-04-30 06:22 | 51.39304 | 0.79062 | 37263 ft | 477 kts | 122° |
| 2026-04-30 06:23 | 51.35730 | 0.87961 | 37261 ft | 475 kts | 122° |
| 2026-04-30 06:23 | 51.32161 | 0.96818 | 37257 ft | 476 kts | 122° |
| 2026-04-30 06:24 | 51.28574 | 1.05690 | 37253 ft | 476 kts | 122° |
| 2026-04-30 06:24 | 51.24994 | 1.14515 | 37253 ft | 476 kts | 122° |
| 2026-04-30 06:25 | 51.21381 | 1.23387 | 37254 ft | 476 kts | 122° |
| 2026-04-30 06:25 | 51.17940 | 1.32392 | 37251 ft | 477 kts | 115° |
| 2026-04-30 06:26 | 51.16011 | 1.42436 | 37254 ft | 477 kts | 98° |
| 2026-04-30 06:26 | 51.15428 | 1.52917 | 37261 ft | 478 kts | 95° |
| 2026-04-30 06:27 | 51.14924 | 1.63444 | 37260 ft | 476 kts | 95° |
| 2026-04-30 06:27 | 51.14413 | 1.73838 | 37261 ft | 477 kts | 95° |
| 2026-04-30 06:28 | 51.13885 | 1.84320 | 37267 ft | 478 kts | 95° |
| 2026-04-30 06:28 | 51.13340 | 1.94921 | 37213 ft | 478 kts | 95° |
| 2026-04-30 06:29 | 51.12791 | 2.05380 | 37281 ft | 477 kts | 95° |
| 2026-04-30 06:29 | 51.12229 | 2.15926 | 37274 ft | 478 kts | 95° |
| 2026-04-30 06:30 | 51.11663 | 2.26350 | 37272 ft | 476 kts | 95° |
| 2026-04-30 06:30 | 51.11083 | 2.36850 | 37283 ft | 477 kts | 95° |
| 2026-04-30 06:31 | 51.10495 | 2.47335 | 37278 ft | 477 kts | 95° |
| 2026-04-30 06:31 | 51.09896 | 2.57816 | 37278 ft | 477 kts | 96° |
| 2026-04-30 06:32 | 51.08327 | 2.68067 | 37288 ft | 477 kts | 112° |
| 2026-04-30 06:32 | 51.05347 | 2.77538 | 37295 ft | 478 kts | 117° |
| 2026-04-30 06:33 | 51.02261 | 2.86834 | 37293 ft | 478 kts | 117° |
| 2026-04-30 06:33 | 50.99151 | 2.96154 | 37300 ft | 478 kts | 117° |
| 2026-04-30 06:34 | 50.96027 | 3.05470 | 37283 ft | 478 kts | 117° |
| 2026-04-30 06:34 | 50.92905 | 3.14745 | 37280 ft | 478 kts | 117° |
| 2026-04-30 06:35 | 50.89769 | 3.24021 | 37284 ft | 478 kts | 117° |
| 2026-04-30 06:35 | 50.86622 | 3.33298 | 37279 ft | 479 kts | 117° |
| 2026-04-30 06:36 | 50.83456 | 3.42593 | 37281 ft | 478 kts | 116° |
| 2026-04-30 06:36 | 50.80277 | 3.51895 | 37280 ft | 480 kts | 116° |
| 2026-04-30 06:37 | 50.77106 | 3.61138 | 37282 ft | 480 kts | 116° |
| 2026-04-30 06:37 | 50.73897 | 3.70456 | 37287 ft | 481 kts | 117° |
| 2026-04-30 06:38 | 50.70823 | 3.79351 | 37290 ft | 481 kts | 117° |
| 2026-04-30 06:38 | 50.67624 | 3.88573 | 37288 ft | 481 kts | 117° |
| 2026-04-30 06:39 | 50.64410 | 3.97805 | 37292 ft | 481 kts | 117° |
| 2026-04-30 06:39 | 50.61191 | 4.07022 | 37292 ft | 481 kts | 117° |
| 2026-04-30 06:40 | 50.57970 | 4.16205 | 37295 ft | 482 kts | 117° |
| 2026-04-30 06:40 | 50.54746 | 4.25368 | 37298 ft | 482 kts | 117° |
| 2026-04-30 06:41 | 50.51492 | 4.34584 | 37301 ft | 483 kts | 117° |
| 2026-04-30 06:41 | 50.48250 | 4.43728 | 37298 ft | 482 kts | 116° |
| 2026-04-30 06:42 | 50.44998 | 4.52871 | 37301 ft | 482 kts | 117° |
| 2026-04-30 06:42 | 50.41726 | 4.62037 | 37297 ft | 482 kts | 116° |
| 2026-04-30 06:43 | 50.38456 | 4.71164 | 37296 ft | 482 kts | 117° |
| 2026-04-30 06:43 | 50.35180 | 4.80274 | 37297 ft | 482 kts | 117° |
| 2026-04-30 06:44 | 50.31885 | 4.89407 | 37293 ft | 483 kts | 117° |
| 2026-04-30 06:44 | 50.28554 | 4.98606 | 37287 ft | 483 kts | 117° |
| 2026-04-30 06:45 | 50.25240 | 5.07727 | 37277 ft | 484 kts | 117° |
| 2026-04-30 06:45 | 50.21926 | 5.16812 | 37278 ft | 482 kts | 117° |
| 2026-04-30 06:46 | 50.18602 | 5.25894 | 37278 ft | 483 kts | 117° |
| 2026-04-30 06:46 | 50.15278 | 5.34946 | 37263 ft | 482 kts | 117° |
| 2026-04-30 06:47 | 50.11941 | 5.43997 | 37262 ft | 483 kts | 117° |
| 2026-04-30 06:47 | 50.08605 | 5.53018 | 37258 ft | 483 kts | 117° |
| 2026-04-30 06:48 | 50.05270 | 5.62003 | 37258 ft | 483 kts | 117° |
| 2026-04-30 06:48 | 50.01938 | 5.70950 | 37266 ft | 484 kts | 117° |
| 2026-04-30 06:49 | 49.98617 | 5.79834 | 37279 ft | 484 kts | 118° |
| 2026-04-30 06:49 | 49.95217 | 5.88900 | 37280 ft | 483 kts | 117° |
| 2026-04-30 06:50 | 49.91844 | 5.97863 | 37293 ft | 483 kts | 117° |
| 2026-04-30 06:50 | 49.88514 | 6.06682 | 37290 ft | 485 kts | 117° |
| 2026-04-30 06:51 | 49.85094 | 6.15807 | 37289 ft | 484 kts | 115° |
| 2026-04-30 06:51 | 49.81991 | 6.25023 | 37297 ft | 484 kts | 114° |
| 2026-04-30 06:52 | 49.78885 | 6.34228 | 37310 ft | 483 kts | 114° |
| 2026-04-30 06:52 | 49.75769 | 6.43395 | 37309 ft | 484 kts | 114° |
| 2026-04-30 06:53 | 49.72632 | 6.52569 | 37315 ft | 484 kts | 114° |
| 2026-04-30 06:53 | 49.69483 | 6.61766 | 37308 ft | 485 kts | 114° |
| 2026-04-30 06:54 | 49.66367 | 6.70833 | 37319 ft | 484 kts | 115° |
| 2026-04-30 06:54 | 49.63200 | 6.80012 | 37307 ft | 486 kts | 115° |
| 2026-04-30 06:55 | 49.60027 | 6.89175 | 37302 ft | 485 kts | 115° |
| 2026-04-30 06:55 | 49.56855 | 6.98300 | 37299 ft | 486 kts | 115° |
| 2026-04-30 06:56 | 49.53681 | 7.07398 | 37310 ft | 486 kts | 114° |
| 2026-04-30 06:56 | 49.50465 | 7.16585 | 37303 ft | 486 kts | 114° |
| 2026-04-30 06:57 | 49.47255 | 7.25720 | 37294 ft | 486 kts | 115° |
| 2026-04-30 06:57 | 49.44051 | 7.34807 | 37296 ft | 487 kts | 114° |
| 2026-04-30 06:58 | 49.40818 | 7.43942 | 37305 ft | 486 kts | 114° |
| 2026-04-30 06:58 | 49.37602 | 7.52998 | 37304 ft | 487 kts | 114° |
| 2026-04-30 06:59 | 49.34370 | 7.62067 | 37308 ft | 485 kts | 114° |
| 2026-04-30 06:59 | 49.32762 | 7.66559 | 37316 ft | 472 kts | 115° |
| 2026-04-30 06:59 | 49.31203 | 7.70909 | 37311 ft | 460 kts | 115° |
| 2026-04-30 07:00 | 49.28147 | 7.79428 | 37324 ft | 457 kts | 115° |
| 2026-04-30 07:00 | 49.25069 | 7.87982 | 37315 ft | 457 kts | 115° |
| 2026-04-30 07:01 | 49.21995 | 7.96492 | 37330 ft | 456 kts | 115° |
| 2026-04-30 07:01 | 49.18933 | 8.04943 | 37336 ft | 458 kts | 114° |
| 2026-04-30 07:02 | 49.15850 | 8.13422 | 37323 ft | 459 kts | 114° |
| 2026-04-30 07:02 | 49.12005 | 8.21345 | 37329 ft | 469 kts | 130° |
| 2026-04-30 07:03 | 49.06754 | 8.27322 | 37336 ft | 480 kts | 147° |
| 2026-04-30 07:03 | 49.00465 | 8.30749 | 37324 ft | 491 kts | 165° |
| 2026-04-30 07:04 | 48.93590 | 8.31416 | 37318 ft | 499 kts | 176° |
| 2026-04-30 07:04 | 48.86788 | 8.31390 | 37301 ft | 499 kts | 176° |
| 2026-04-30 07:05 | 48.76268 | 8.31435 | 37298 ft | 500 kts | 176° |
| 2026-04-30 07:05 | 48.69455 | 8.31495 | 37284 ft | 499 kts | 176° |
| 2026-04-30 07:06 | 48.62493 | 8.31568 | 37278 ft | 498 kts | 176° |
| 2026-04-30 07:06 | 48.55590 | 8.31648 | 37262 ft | 497 kts | 176° |
| 2026-04-30 07:07 | 48.48655 | 8.31733 | 37250 ft | 500 kts | 176° |
| 2026-04-30 07:07 | 48.41692 | 8.31818 | 37249 ft | 499 kts | 176° |
| 2026-04-30 07:08 | 48.34693 | 8.31905 | 37236 ft | 500 kts | 176° |
| 2026-04-30 07:08 | 48.27741 | 8.31992 | 37242 ft | 499 kts | 176° |
| 2026-04-30 07:09 | 48.20805 | 8.32079 | 37236 ft | 500 kts | 176° |
| 2026-04-30 07:09 | 48.13925 | 8.32860 | 37229 ft | 495 kts | 168° |
| 2026-04-30 07:10 | 48.07078 | 8.34521 | 37232 ft | 498 kts | 168° |
| 2026-04-30 07:10 | 48.00221 | 8.36189 | 37239 ft | 496 kts | 168° |
| 2026-04-30 07:11 | 47.93429 | 8.37833 | 37232 ft | 497 kts | 168° |
| 2026-04-30 07:11 | 47.86749 | 8.39444 | 37252 ft | 497 kts | 168° |
| 2026-04-30 07:12 | 47.80040 | 8.41437 | 37232 ft | 493 kts | 158° |
| 2026-04-30 07:12 | 47.74010 | 8.45893 | 37212 ft | 489 kts | 140° |
| 2026-04-30 07:13 | 47.69156 | 8.52833 | 37242 ft | 479 kts | 122° |
| 2026-04-30 07:13 | 47.65972 | 8.61423 | 37245 ft | 469 kts | 105° |
| 2026-04-30 07:14 | 47.63996 | 8.70632 | 37238 ft | 469 kts | 103° |
| 2026-04-30 07:14 | 47.61548 | 8.79495 | 37243 ft | 475 kts | 117° |
| 2026-04-30 07:15 | 47.57383 | 8.87143 | 37225 ft | 486 kts | 134° |
| 2026-04-30 07:15 | 47.51760 | 8.92701 | 37212 ft | 494 kts | 153° |
| 2026-04-30 07:16 | 47.45142 | 8.95538 | 37217 ft | 502 kts | 171° |
| 2026-04-30 07:16 | 47.38158 | 8.95329 | 37217 ft | 506 kts | 189° |
| 2026-04-30 07:17 | 47.31464 | 8.92090 | 37200 ft | 505 kts | 207° |
| 2026-04-30 07:17 | 47.25749 | 8.86139 | 37199 ft | 502 kts | 226° |
| 2026-04-30 07:18 | 47.23455 | 8.82349 | 37213 ft | 500 kts | 235° |
| 2026-04-30 07:18 | 47.20120 | 8.73390 | 37209 ft | 506 kts | 253° |
| 2026-04-30 07:19 | 47.18736 | 8.63391 | 37204 ft | 502 kts | 271° |
| 2026-04-30 07:19 | 47.19279 | 8.53208 | 37220 ft | 495 kts | 282° |
| 2026-04-30 07:19 | 47.19774 | 8.48254 | 37211 ft | 483 kts | 282° |
| 2026-04-30 07:20 | 47.20254 | 8.43454 | 37215 ft | 477 kts | 282° |
| 2026-04-30 07:20 | 47.21222 | 8.33781 | 37213 ft | 481 kts | 281° |
| 2026-04-30 07:21 | 47.21950 | 8.24033 | 37219 ft | 483 kts | 272° |
| 2026-04-30 07:21 | 47.20873 | 8.14207 | 37210 ft | 492 kts | 255° |
| 2026-04-30 07:22 | 47.16653 | 8.00454 | 37215 ft | 497 kts | 242° |
| 2026-04-30 07:22 | 47.13049 | 7.91764 | 37204 ft | 498 kts | 239° |
| 2026-04-30 07:23 | 47.09208 | 7.83372 | 37050 ft | 490 kts | 237° |
| 2026-04-30 07:23 | 47.07255 | 7.79278 | 36435 ft | 488 kts | 237° |
| 2026-04-30 07:23 | 47.05257 | 7.75174 | 35541 ft | 496 kts | 236° |
| 2026-04-30 07:24 | 47.03221 | 7.71055 | 34405 ft | 509 kts | 234° |
| 2026-04-30 07:24 | 47.01201 | 7.66806 | 33288 ft | 516 kts | 240° |
| 2026-04-30 07:24 | 46.99557 | 7.62161 | 32065 ft | 512 kts | 249° |
| 2026-04-30 07:24 | 46.98401 | 7.57269 | 30689 ft | 511 kts | 257° |
| 2026-04-30 07:25 | 46.97757 | 7.52264 | 29265 ft | 506 kts | 267° |
| 2026-04-30 07:25 | 46.97650 | 7.47134 | 28216 ft | 492 kts | 276° |
| 2026-04-30 07:25 | 46.98058 | 7.42285 | 27287 ft | 477 kts | 285° |
| 2026-04-30 07:25 | 46.98946 | 7.37678 | 26229 ft | 465 kts | 295° |
| 2026-04-30 07:26 | 47.00270 | 7.33487 | 25147 ft | 454 kts | 303° |
| 2026-04-30 07:26 | 47.01924 | 7.29886 | 24109 ft | 443 kts | 313° |
| 2026-04-30 07:26 | 47.03889 | 7.26810 | 23109 ft | 431 kts | 322° |
| 2026-04-30 07:26 | 47.06209 | 7.24217 | 22062 ft | 420 kts | 332° |
| 2026-04-30 07:27 | 47.08765 | 7.22284 | 20988 ft | 410 kts | 342° |
| 2026-04-30 07:27 | 47.11439 | 7.21097 | 19959 ft | 399 kts | 352° |
| 2026-04-30 07:27 | 47.14171 | 7.20663 | 18909 ft | 390 kts | 3° |
| 2026-04-30 07:27 | 47.16836 | 7.20924 | 17875 ft | 383 kts | 10° |
| 2026-04-30 07:28 | 47.19424 | 7.21710 | 16845 ft | 376 kts | 18° |
| 2026-04-30 07:28 | 47.21854 | 7.22966 | 15807 ft | 371 kts | 25° |
| 2026-04-30 07:28 | 47.24113 | 7.24652 | 14766 ft | 367 kts | 32° |
| 2026-04-30 07:28 | 47.26193 | 7.26759 | 13897 ft | 365 kts | 39° |
| 2026-04-30 07:29 | 47.28040 | 7.29272 | 13734 ft | 350 kts | 46° |
| 2026-04-30 07:29 | 47.29580 | 7.32003 | 13757 ft | 350 kts | 53° |
| 2026-04-30 07:29 | 47.30897 | 7.35114 | 14400 ft | 364 kts | 61° |
| 2026-04-30 07:29 | 47.31919 | 7.38472 | 15519 ft | 363 kts | 68° |
| 2026-04-30 07:30 | 47.33124 | 7.45647 | 16177 ft | 362 kts | 81° |
| 2026-04-30 07:30 | 47.33260 | 7.49322 | 16187 ft | 362 kts | 88° |
| 2026-04-30 07:30 | 47.33074 | 7.53002 | 16179 ft | 363 kts | 95° |
| 2026-04-30 07:31 | 47.32558 | 7.56667 | 16179 ft | 366 kts | 102° |
| 2026-04-30 07:31 | 47.31715 | 7.60227 | 16181 ft | 369 kts | 109° |
| 2026-04-30 07:31 | 47.30550 | 7.63625 | 16178 ft | 373 kts | 117° |
| 2026-04-30 07:31 | 47.29026 | 7.66794 | 16194 ft | 377 kts | 126° |
| 2026-04-30 07:32 | 47.27371 | 7.69752 | 16192 ft | 377 kts | 126° |
| 2026-04-30 07:32 | 47.25682 | 7.72743 | 16188 ft | 378 kts | 127° |
| 2026-04-30 07:32 | 47.24000 | 7.75718 | 16200 ft | 377 kts | 126° |
| 2026-04-30 07:32 | 47.22320 | 7.78706 | 16199 ft | 377 kts | 124° |
| 2026-04-30 07:33 | 47.20841 | 7.81804 | 16192 ft | 374 kts | 118° |
| 2026-04-30 07:33 | 47.19593 | 7.85175 | 16197 ft | 372 kts | 112° |
| 2026-04-30 07:33 | 47.18634 | 7.88656 | 16199 ft | 370 kts | 105° |
| 2026-04-30 07:33 | 47.17938 | 7.92319 | 16206 ft | 369 kts | 99° |
| 2026-04-30 07:34 | 47.17535 | 7.95993 | 16187 ft | 366 kts | 93° |
| 2026-04-30 07:34 | 47.17413 | 7.99712 | 16218 ft | 366 kts | 86° |
| 2026-04-30 07:34 | 47.17569 | 8.03399 | 16189 ft | 363 kts | 81° |
| 2026-04-30 07:34 | 47.18009 | 8.07089 | 16200 ft | 363 kts | 74° |
| 2026-04-30 07:35 | 47.18708 | 8.10607 | 16194 ft | 360 kts | 68° |
| 2026-04-30 07:35 | 47.19664 | 8.13989 | 16195 ft | 359 kts | 62° |
| 2026-04-30 07:35 | 47.20873 | 8.17210 | 16194 ft | 356 kts | 56° |
| 2026-04-30 07:35 | 47.22298 | 8.20174 | 16197 ft | 357 kts | 51° |
| 2026-04-30 07:36 | 47.23936 | 8.22891 | 16204 ft | 356 kts | 45° |
| 2026-04-30 07:36 | 47.25777 | 8.25338 | 16204 ft | 356 kts | 38° |
| 2026-04-30 07:36 | 47.27779 | 8.27462 | 16201 ft | 355 kts | 32° |
| 2026-04-30 07:36 | 47.29922 | 8.29245 | 16205 ft | 356 kts | 27° |
| 2026-04-30 07:37 | 47.32200 | 8.30678 | 16210 ft | 355 kts | 21° |
| 2026-04-30 07:37 | 47.34555 | 8.31728 | 16209 ft | 358 kts | 15° |
| 2026-04-30 07:37 | 47.37004 | 8.32396 | 16212 ft | 358 kts | 9° |
| 2026-04-30 07:37 | 47.39504 | 8.32667 | 16212 ft | 359 kts | 4° |
| 2026-04-30 07:38 | 47.41929 | 8.33032 | 16211 ft | 340 kts | 12° |
| 2026-04-30 07:38 | 47.44220 | 8.33504 | 16098 ft | 323 kts | 4° |
| 2026-04-30 07:38 | 47.46390 | 8.33314 | 15843 ft | 308 kts | 353° |
| 2026-04-30 07:38 | 47.48429 | 8.32486 | 15534 ft | 299 kts | 342° |
| 2026-04-30 07:39 | 47.50281 | 8.31124 | 14937 ft | 301 kts | 331° |
| 2026-04-30 07:39 | 47.51947 | 8.29226 | 14234 ft | 306 kts | 319° |
| 2026-04-30 07:39 | 47.53424 | 8.26954 | 13628 ft | 305 kts | 316° |
| 2026-04-30 07:39 | 47.54839 | 8.24653 | 13067 ft | 302 kts | 315° |
| 2026-04-30 07:40 | 47.56237 | 8.22361 | 12472 ft | 299 kts | 316° |
| 2026-04-30 07:40 | 47.57721 | 8.20263 | 11884 ft | 295 kts | 321° |
| 2026-04-30 07:40 | 47.59298 | 8.18384 | 11307 ft | 289 kts | 334° |
| 2026-04-30 07:40 | 47.61177 | 8.17510 | 10679 ft | 283 kts | 359° |
| 2026-04-30 07:41 | 47.63079 | 8.17891 | 10052 ft | 278 kts | 24° |
| 2026-04-30 07:41 | 47.64725 | 8.19381 | 9472 ft | 274 kts | 40° |
| 2026-04-30 07:41 | 47.66082 | 8.21223 | 9245 ft | 257 kts | 48° |
| 2026-04-30 07:41 | 47.66956 | 8.23412 | 9027 ft | 241 kts | 73° |
| 2026-04-30 07:42 | 47.67111 | 8.25791 | 8585 ft | 234 kts | 95° |
| 2026-04-30 07:42 | 47.66602 | 8.28085 | 7831 ft | 238 kts | 118° |
| 2026-04-30 07:42 | 47.65523 | 8.29909 | 7233 ft | 235 kts | 134° |
| 2026-04-30 07:42 | 47.64325 | 8.31533 | 6624 ft | 230 kts | 134° |
| 2026-04-30 07:43 | 47.63172 | 8.33105 | 6297 ft | 226 kts | 133° |
| 2026-04-30 07:43 | 47.62036 | 8.34663 | 6218 ft | 210 kts | 134° |
| 2026-04-30 07:43 | 47.61021 | 8.36048 | 5877 ft | 192 kts | 133° |
| 2026-04-30 07:43 | 47.60066 | 8.37356 | 5500 ft | 183 kts | 133° |
| 2026-04-30 07:44 | 47.59132 | 8.38608 | 5027 ft | 182 kts | 135° |
| 2026-04-30 07:44 | 47.58085 | 8.40003 | 4422 ft | 184 kts | 133° |
| 2026-04-30 07:44 | 47.57146 | 8.41290 | 3912 ft | 183 kts | 134° |
| 2026-04-30 07:44 | 47.56233 | 8.42518 | 3580 ft | 174 kts | 133° |
| 2026-04-30 07:45 | 47.55362 | 8.43741 | 3276 ft | 173 kts | 131° |
| 2026-04-30 07:45 | 47.54491 | 8.44964 | 3111 ft | 171 kts | 133° |
| 2026-04-30 07:45 | 47.53611 | 8.46174 | 2866 ft | 172 kts | 132° |
| 2026-04-30 07:45 | 47.52776 | 8.47384 | 2588 ft | 163 kts | 131° |
| 2026-04-30 07:46 | 47.52031 | 8.48478 | 2420 ft | 142 kts | 133° |
| 2026-04-30 07:46 | 47.51298 | 8.49493 | 2197 ft | 144 kts | 133° |
| 2026-04-30 07:46 | 47.50554 | 8.50514 | 2040 ft | 148 kts | 134° |
| 2026-04-30 07:46 | 47.49783 | 8.51548 | 1876 ft | 153 kts | 136° |
| 2026-04-30 07:47 | 47.48986 | 8.52587 | 1644 ft | 153 kts | 136° |
| 2026-04-30 07:47 | 47.48194 | 8.53630 | 1469 ft | 148 kts | 135° |
| 2026-04-30 07:47 | 47.47492 | 8.54593 | 1394 ft | 121 kts | 137° |
| 2026-04-30 07:47 | 47.46961 | 8.55314 | 1395 ft | 84 kts | 137° |
| 2026-04-30 07:48 | 47.46677 | 8.55641 | 1400 ft | 35 kts | 158° |
| 2026-04-30 07:48 | 47.46523 | 8.55703 | 1402 ft | 16 kts | 166° |
| 2026-04-30 07:48 | 47.46485 | 8.55716 | 1403 ft | 0 kts | 167° |
| 2026-04-30 07:49 | 47.46450 | 8.55727 | 1403 ft | 8 kts | 167° |
| 2026-04-30 07:49 | 47.46399 | 8.55749 | 1404 ft | 6 kts | 152° |
| 2026-04-30 07:49 | 47.46343 | 8.55808 | 1405 ft | 13 kts | 138° |
| 2026-04-30 07:49 | 47.46254 | 8.55867 | 1407 ft | 16 kts | 215° |
| 2026-04-30 07:50 | 47.46246 | 8.55672 | 1405 ft | 22 kts | 274° |
| 2026-04-30 07:50 | 47.46256 | 8.55479 | 1402 ft | 9 kts | 260° |
| 2026-04-30 07:50 | 47.46209 | 8.55440 | 1402 ft | 8 kts | 185° |
| 2026-04-30 07:50 | 47.46203 | 8.55439 | 1402 ft | 0 kts | 186° |
| 2026-04-30 07:51 | 47.46195 | 8.55438 | 1402 ft | 0 kts | 185° |